createdAt,value
2023-05-16T00:02:18.749Z,100374.34
2023-05-16T00:04:46.200Z,100376.78
2023-05-16T00:07:12.716Z,100371.78
2023-05-16T00:09:39.632Z,100378.56
2023-05-16T00:12:06.503Z,100379.84
2023-05-16T00:14:33.137Z,100385.75
2023-05-16T00:16:59.726Z,100383.81
2023-05-16T00:19:27.641Z,100393.47
2023-05-16T00:21:54.147Z,100385.06
2023-05-16T00:24:20.660Z,100385.22
2023-05-16T00:26:47.212Z,100399.22
2023-05-16T00:29:14.676Z,100390.81
2023-05-16T00:31:41.230Z,100394.34
2023-05-16T00:34:07.827Z,100395.91
2023-05-16T00:36:35.836Z,100390.41
2023-05-16T00:39:02.437Z,100397.03
2023-05-16T00:41:29.087Z,100406.19
2023-05-16T00:43:55.598Z,100397.09
2023-05-16T00:46:22.115Z,100405.69
2023-05-16T00:48:48.667Z,100412.06
2023-05-16T00:51:15.701Z,100409.09
2023-05-16T00:53:42.357Z,100408.41
2023-05-16T00:56:09.260Z,100410.03
2023-05-16T00:58:36.981Z,100408.41
2023-05-16T01:01:06.462Z,100419.88
2023-05-16T01:03:33.328Z,100424.91
2023-05-16T01:06:00.380Z,100419.69
2023-05-16T01:08:27.046Z,100422.78
2023-05-16T01:11:20.916Z,100418.41
2023-05-16T01:13:58.672Z,100426.94
2023-05-16T01:16:47.125Z,100430.00
2023-05-16T01:19:33.168Z,100440.16
2023-05-16T01:22:05.696Z,100441.19
2023-05-16T01:24:44.751Z,100441.72
2023-05-16T01:27:12.136Z,100450.16
2023-05-16T01:29:38.645Z,100452.75
2023-05-16T01:32:05.477Z,100462.19
2023-05-16T01:34:32.123Z,100459.44
2023-05-16T01:37:19.966Z,100471.50
2023-05-16T01:40:00.082Z,100476.78
2023-05-16T01:42:29.164Z,100470.91
2023-05-16T01:45:27.545Z,100473.75
2023-05-16T01:48:13.783Z,100485.78
2023-05-16T01:50:45.506Z,100479.88
2023-05-16T01:53:16.154Z,100487.56
2023-05-16T01:55:48.910Z,100495.06
2023-05-16T01:58:18.701Z,100501.44
2023-05-16T02:00:45.311Z,100492.88
2023-05-16T02:03:11.994Z,100503.78
2023-05-16T02:05:38.702Z,100502.38
2023-05-16T02:08:05.707Z,100507.81
2023-05-16T02:10:32.900Z,100509.28
2023-05-16T02:12:59.689Z,100511.63
2023-05-16T02:15:26.581Z,100514.03
2023-05-16T02:17:53.499Z,100517.94
2023-05-16T02:20:20.185Z,100513.94
2023-05-16T02:22:47.517Z,100518.97
2023-05-16T02:25:15.014Z,100514.59
2023-05-16T02:27:42.956Z,100528.44
2023-05-16T02:30:11.853Z,100516.63
2023-05-16T02:32:39.485Z,100527.84
2023-05-16T02:35:06.166Z,100529.63
2023-05-16T02:37:32.654Z,100533.19
2023-05-16T02:39:59.157Z,100538.31
2023-05-16T02:42:27.677Z,100542.66
2023-05-16T02:44:54.181Z,100544.41
2023-05-16T02:47:20.776Z,100549.16
2023-05-16T02:49:47.332Z,100550.94
2023-05-16T02:52:13.877Z,100554.81
2023-05-16T02:54:40.572Z,100553.38
2023-05-16T02:57:07.122Z,100563.06
2023-05-16T02:59:33.643Z,100572.41
2023-05-16T03:02:00.330Z,100564.66
2023-05-16T03:04:26.862Z,100586.16
2023-05-16T03:06:54.008Z,100579.47
2023-05-16T03:09:20.704Z,100575.97
2023-05-16T03:11:47.379Z,100586.50
2023-05-16T03:14:13.946Z,100584.91
2023-05-16T03:16:43.429Z,100586.63
2023-05-16T03:19:10.809Z,100595.63
2023-05-16T03:21:37.337Z,100599.66
2023-05-16T03:24:04.211Z,100607.81
2023-05-16T03:26:30.784Z,100598.75
2023-05-16T03:28:57.379Z,100611.44
2023-05-16T03:31:23.969Z,100605.88
2023-05-16T03:33:50.814Z,100600.06
2023-05-16T03:36:17.439Z,100608.72
2023-05-16T03:38:43.970Z,100614.19
2023-05-16T03:41:10.842Z,100605.41
2023-05-16T03:43:37.453Z,100608.78
2023-05-16T03:46:04.168Z,100610.31
2023-05-16T03:48:30.958Z,100605.66
2023-05-16T03:50:57.507Z,100616.53
2023-05-16T03:53:24.012Z,100606.69
2023-05-16T03:55:50.591Z,100613.59
2023-05-16T03:58:17.116Z,100612.09
2023-05-16T04:00:43.707Z,100608.25
2023-05-16T04:03:11.448Z,100629.09
2023-05-16T04:05:38.039Z,100624.78
2023-05-16T04:08:04.739Z,100628.69
2023-05-16T04:10:31.266Z,100640.88
2023-05-16T04:12:57.785Z,100637.84
2023-05-16T04:15:24.324Z,100642.06
2023-05-16T04:17:50.956Z,100650.28
2023-05-16T04:20:17.525Z,100653.03
2023-05-16T04:22:44.052Z,100663.66
2023-05-16T04:25:11.312Z,100663.31
2023-05-16T04:27:38.546Z,100670.03
2023-05-16T04:30:05.531Z,100666.72
2023-05-16T04:32:35.333Z,100668.31
2023-05-16T04:35:02.133Z,100672.38
2023-05-16T04:37:28.628Z,100674.69
2023-05-16T04:39:55.137Z,100669.53
2023-05-16T04:42:21.759Z,100671.16
2023-05-16T04:44:48.504Z,100678.19
2023-05-16T04:47:15.106Z,100681.00
2023-05-16T04:49:41.674Z,100677.84
2023-05-16T04:52:11.192Z,100687.25
2023-05-16T04:54:40.519Z,100683.41
2023-05-16T04:57:07.014Z,100684.66
2023-05-16T04:59:33.663Z,100696.38
2023-05-16T05:02:00.285Z,100701.44
2023-05-16T05:04:26.959Z,100701.44
2023-05-16T05:06:53.500Z,100709.31
2023-05-16T05:09:20.020Z,100713.22
2023-05-16T05:11:46.612Z,100719.06
2023-05-16T05:14:13.165Z,100715.31
2023-05-16T05:16:39.832Z,100714.78
2023-05-16T05:19:06.689Z,100721.47
2023-05-16T05:21:33.248Z,100726.94
2023-05-16T05:23:59.736Z,100737.00
2023-05-16T05:26:26.365Z,100741.28
2023-05-16T05:29:04.646Z,100747.22
2023-05-16T05:31:35.150Z,100749.13
2023-05-16T05:34:02.767Z,100746.34
2023-05-16T05:36:29.589Z,100749.78
2023-05-16T05:38:56.200Z,100753.28
2023-05-16T05:41:22.801Z,100764.25
2023-05-16T05:43:49.548Z,100762.63
2023-05-16T05:46:17.273Z,100776.34
2023-05-16T05:48:44.546Z,100769.16
2023-05-16T05:51:11.247Z,100773.03
2023-05-16T05:53:37.769Z,100778.59
2023-05-16T05:56:04.374Z,100774.97
2023-05-16T05:58:30.963Z,100780.53
2023-05-16T06:00:57.499Z,100789.97
2023-05-16T06:03:24.210Z,100785.19
2023-05-16T06:05:50.898Z,100786.78
2023-05-16T06:08:17.464Z,100782.72
2023-05-16T06:10:43.967Z,100788.00
2023-05-16T06:13:10.594Z,100789.63
2023-05-16T06:15:37.474Z,100793.84
2023-05-16T06:18:04.108Z,100789.50
2023-05-16T06:20:30.644Z,100789.53
2023-05-16T06:22:57.339Z,100796.19
2023-05-16T06:25:23.879Z,100795.22
2023-05-16T06:27:51.414Z,100795.91
2023-05-16T06:30:17.970Z,100802.06
2023-05-16T06:32:44.640Z,100802.34
2023-05-16T06:35:11.370Z,100808.28
2023-05-16T06:37:37.867Z,100807.44
2023-05-16T06:40:05.465Z,100813.25
2023-05-16T06:42:32.030Z,100820.66
2023-05-16T06:44:59.139Z,100831.06
2023-05-16T06:47:26.014Z,100825.88
2023-05-16T06:49:52.753Z,100829.41
2023-05-16T06:52:19.565Z,100833.63
2023-05-16T06:54:46.081Z,100826.97
2023-05-16T06:57:13.423Z,100834.72
2023-05-16T06:59:40.052Z,100833.22
2023-05-16T07:02:06.931Z,100837.03
2023-05-16T07:04:34.457Z,100843.09
2023-05-16T07:07:01.112Z,100850.88
2023-05-16T07:09:27.729Z,100849.69
